sensor_id;sensor_type;location;lat;lon;timestamp;temperature;humidity
4828;DHT22;2428;48.732;9.148;2023-11-22T00:01:04;7.40;99.90
4828;DHT22;2428;48.732;9.148;2023-11-22T00:03:31;7.40;99.90
4828;DHT22;2428;48.732;9.148;2023-11-22T00:05:57;7.40;99.90
4828;DHT22;2428;48.732;9.148;2023-11-22T00:08:23;7.40;99.90
4828;DHT22;2428;48.732;9.148;2023-11-22T00:10:48;7.40;99.90
4828;DHT22;2428;48.732;9.148;2023-11-22T00:13:14;7.40;99.90
4828;DHT22;2428;48.732;9.148;2023-11-22T00:15:40;7.40;99.90
4828;DHT22;2428;48.732;9.148;2023-11-22T00:18:05;7.50;99.90
4828;DHT22;2428;48.732;9.148;2023-11-22T00:20:31;7.40;99.90
4828;DHT22;2428;48.732;9.148;2023-11-22T00:22:56;7.40;99.90
4828;DHT22;2428;48.732;9.148;2023-11-22T00:25:22;7.20;99.90
4828;DHT22;2428;48.732;9.148;2023-11-22T00:27:48;7.00;99.90
4828;DHT22;2428;48.732;9.148;2023-11-22T00:30:14;6.90;99.90
4828;DHT22;2428;48.732;9.148;2023-11-22T00:32:39;6.80;99.90
4828;DHT22;2428;48.732;9.148;2023-11-22T00:35:06;6.70;99.90
4828;DHT22;2428;48.732;9.148;2023-11-22T00:37:33;6.60;99.90
4828;DHT22;2428;48.732;9.148;2023-11-22T00:40:00;6.50;99.90
4828;DHT22;2428;48.732;9.148;2023-11-22T00:42:26;6.40;99.90
4828;DHT22;2428;48.732;9.148;2023-11-22T00:44:52;6.40;99.90
4828;DHT22;2428;48.732;9.148;2023-11-22T00:47:19;6.30;99.90
4828;DHT22;2428;48.732;9.148;2023-11-22T00:49:44;6.30;99.90
4828;DHT22;2428;48.732;9.148;2023-11-22T00:52:10;6.20;99.90
4828;DHT22;2428;48.732;9.148;2023-11-22T00:54:35;6.10;99.90
4828;DHT22;2428;48.732;9.148;2023-11-22T00:57:01;6.10;99.90
4828;DHT22;2428;48.732;9.148;2023-11-22T00:59:26;6.10;99.90
4828;DHT22;2428;48.732;9.148;2023-11-22T01:01:52;6.10;99.90
4828;DHT22;2428;48.732;9.148;2023-11-22T01:04:17;6.00;99.90
4828;DHT22;2428;48.732;9.148;2023-11-22T01:06:43;6.00;99.90
4828;DHT22;2428;48.732;9.148;2023-11-22T01:09:09;6.00;99.90
4828;DHT22;2428;48.732;9.148;2023-11-22T01:11:35;5.90;99.90
4828;DHT22;2428;48.732;9.148;2023-11-22T01:14:00;5.90;99.90
4828;DHT22;2428;48.732;9.148;2023-11-22T01:16:26;5.90;99.90
4828;DHT22;2428;48.732;9.148;2023-11-22T01:18:52;5.80;99.90
4828;DHT22;2428;48.732;9.148;2023-11-22T01:21:18;5.80;99.90
4828;DHT22;2428;48.732;9.148;2023-11-22T01:23:45;5.70;99.90
4828;DHT22;2428;48.732;9.148;2023-11-22T01:26:11;5.70;99.90
4828;DHT22;2428;48.732;9.148;2023-11-22T01:28:37;5.70;99.90
4828;DHT22;2428;48.732;9.148;2023-11-22T01:31:05;5.60;99.90
4828;DHT22;2428;48.732;9.148;2023-11-22T01:33:31;5.60;99.90
4828;DHT22;2428;48.732;9.148;2023-11-22T01:36:01;5.60;99.90
4828;DHT22;2428;48.732;9.148;2023-11-22T01:38:27;5.60;99.90
4828;DHT22;2428;48.732;9.148;2023-11-22T01:40:52;5.60;99.90
4828;DHT22;2428;48.732;9.148;2023-11-22T01:43:19;5.50;99.90
4828;DHT22;2428;48.732;9.148;2023-11-22T01:45:45;5.50;99.90
4828;DHT22;2428;48.732;9.148;2023-11-22T01:48:12;5.40;99.90
4828;DHT22;2428;48.732;9.148;2023-11-22T01:50:38;5.30;99.90
4828;DHT22;2428;48.732;9.148;2023-11-22T01:53:10;5.20;99.90
4828;DHT22;2428;48.732;9.148;2023-11-22T01:55:36;5.20;99.90
4828;DHT22;2428;48.732;9.148;2023-11-22T01:58:02;5.20;99.90
4828;DHT22;2428;48.732;9.148;2023-11-22T02:00:32;5.20;99.90
4828;DHT22;2428;48.732;9.148;2023-11-22T02:02:58;5.10;99.90
4828;DHT22;2428;48.732;9.148;2023-11-22T02:05:23;5.10;99.90
4828;DHT22;2428;48.732;9.148;2023-11-22T02:07:49;5.10;99.90
4828;DHT22;2428;48.732;9.148;2023-11-22T02:10:15;5.10;99.90
4828;DHT22;2428;48.732;9.148;2023-11-22T02:12:41;5.10;99.90
4828;DHT22;2428;48.732;9.148;2023-11-22T02:15:07;5.10;99.90
4828;DHT22;2428;48.732;9.148;2023-11-22T02:17:32;5.10;99.90
4828;DHT22;2428;48.732;9.148;2023-11-22T02:19:59;5.00;99.90
4828;DHT22;2428;48.732;9.148;2023-11-22T02:22:25;5.00;99.90
4828;DHT22;2428;48.732;9.148;2023-11-22T02:24:50;5.00;99.90
4828;DHT22;2428;48.732;9.148;2023-11-22T02:27:16;5.00;99.90
4828;DHT22;2428;48.732;9.148;2023-11-22T02:29:42;4.90;99.90
4828;DHT22;2428;48.732;9.148;2023-11-22T02:32:07;4.80;99.90
4828;DHT22;2428;48.732;9.148;2023-11-22T02:34:33;4.90;99.90
4828;DHT22;2428;48.732;9.148;2023-11-22T02:36:59;4.70;99.90
4828;DHT22;2428;48.732;9.148;2023-11-22T02:39:32;4.70;99.90
4828;DHT22;2428;48.732;9.148;2023-11-22T02:42:01;4.60;99.90
4828;DHT22;2428;48.732;9.148;2023-11-22T02:44:27;4.60;99.90
4828;DHT22;2428;48.732;9.148;2023-11-22T02:46:53;4.60;99.90
4828;DHT22;2428;48.732;9.148;2023-11-22T02:49:18;4.60;99.90
4828;DHT22;2428;48.732;9.148;2023-11-22T02:51:45;4.50;99.90
4828;DHT22;2428;48.732;9.148;2023-11-22T02:54:11;4.50;99.90
4828;DHT22;2428;48.732;9.148;2023-11-22T02:56:37;4.50;99.90
4828;DHT22;2428;48.732;9.148;2023-11-22T02:59:03;4.50;99.90
4828;DHT22;2428;48.732;9.148;2023-11-22T03:01:28;4.40;99.90
4828;DHT22;2428;48.732;9.148;2023-11-22T03:03:54;4.40;99.90
4828;DHT22;2428;48.732;9.148;2023-11-22T03:06:19;4.40;99.90
4828;DHT22;2428;48.732;9.148;2023-11-22T03:08:45;4.30;99.90
4828;DHT22;2428;48.732;9.148;2023-11-22T03:11:10;4.30;99.90
4828;DHT22;2428;48.732;9.148;2023-11-22T03:13:36;4.20;99.90
4828;DHT22;2428;48.732;9.148;2023-11-22T03:16:02;4.20;99.90
4828;DHT22;2428;48.732;9.148;2023-11-22T03:18:29;4.10;99.90
4828;DHT22;2428;48.732;9.148;2023-11-22T03:20:54;4.10;99.90
4828;DHT22;2428;48.732;9.148;2023-11-22T03:23:20;4.00;99.90
4828;DHT22;2428;48.732;9.148;2023-11-22T03:25:46;4.00;99.90
4828;DHT22;2428;48.732;9.148;2023-11-22T03:28:12;3.90;99.90
4828;DHT22;2428;48.732;9.148;2023-11-22T03:30:38;3.90;99.90
4828;DHT22;2428;48.732;9.148;2023-11-22T03:33:04;3.90;99.90
4828;DHT22;2428;48.732;9.148;2023-11-22T03:35:30;3.90;99.90
4828;DHT22;2428;48.732;9.148;2023-11-22T03:37:56;3.90;99.90
4828;DHT22;2428;48.732;9.148;2023-11-22T03:40:22;3.90;99.90
4828;DHT22;2428;48.732;9.148;2023-11-22T03:42:47;3.90;99.90
4828;DHT22;2428;48.732;9.148;2023-11-22T03:45:13;3.80;99.90
4828;DHT22;2428;48.732;9.148;2023-11-22T03:47:39;3.80;99.90
4828;DHT22;2428;48.732;9.148;2023-11-22T03:50:06;3.80;99.90
4828;DHT22;2428;48.732;9.148;2023-11-22T03:52:31;3.80;99.90
4828;DHT22;2428;48.732;9.148;2023-11-22T03:54:57;3.80;99.90
4828;DHT22;2428;48.732;9.148;2023-11-22T03:57:23;3.80;99.90
4828;DHT22;2428;48.732;9.148;2023-11-22T03:59:49;3.80;99.90
4828;DHT22;2428;48.732;9.148;2023-11-22T04:02:14;3.80;99.90
4828;DHT22;2428;48.732;9.148;2023-11-22T04:04:40;3.80;99.90
4828;DHT22;2428;48.732;9.148;2023-11-22T04:07:07;3.80;99.90
4828;DHT22;2428;48.732;9.148;2023-11-22T04:09:33;3.80;99.90
4828;DHT22;2428;48.732;9.148;2023-11-22T04:11:59;3.90;99.90
4828;DHT22;2428;48.732;9.148;2023-11-22T04:14:24;3.80;99.90
4828;DHT22;2428;48.732;9.148;2023-11-22T04:16:52;3.80;99.90
4828;DHT22;2428;48.732;9.148;2023-11-22T04:19:18;3.80;99.90
4828;DHT22;2428;48.732;9.148;2023-11-22T04:21:44;3.90;99.90
4828;DHT22;2428;48.732;9.148;2023-11-22T04:24:09;3.80;99.90
4828;DHT22;2428;48.732;9.148;2023-11-22T04:26:35;3.90;99.90
4828;DHT22;2428;48.732;9.148;2023-11-22T04:29:01;3.90;99.90
4828;DHT22;2428;48.732;9.148;2023-11-22T04:31:27;3.90;99.90
4828;DHT22;2428;48.732;9.148;2023-11-22T04:33:53;4.00;99.90
4828;DHT22;2428;48.732;9.148;2023-11-22T04:36:19;3.90;99.90
4828;DHT22;2428;48.732;9.148;2023-11-22T04:38:46;4.00;99.90
4828;DHT22;2428;48.732;9.148;2023-11-22T04:41:11;4.00;99.90
4828;DHT22;2428;48.732;9.148;2023-11-22T04:43:37;4.00;99.90
4828;DHT22;2428;48.732;9.148;2023-11-22T04:46:02;4.00;99.90
4828;DHT22;2428;48.732;9.148;2023-11-22T04:48:29;4.00;99.90
4828;DHT22;2428;48.732;9.148;2023-11-22T04:50:55;4.00;99.90
4828;DHT22;2428;48.732;9.148;2023-11-22T04:53:20;4.00;99.90
4828;DHT22;2428;48.732;9.148;2023-11-22T04:55:46;4.10;99.90
4828;DHT22;2428;48.732;9.148;2023-11-22T04:58:11;4.10;99.90
4828;DHT22;2428;48.732;9.148;2023-11-22T05:00:37;4.10;99.90
4828;DHT22;2428;48.732;9.148;2023-11-22T05:03:03;4.10;99.90
4828;DHT22;2428;48.732;9.148;2023-11-22T05:05:28;4.10;99.90
4828;DHT22;2428;48.732;9.148;2023-11-22T05:07:54;4.10;99.90
4828;DHT22;2428;48.732;9.148;2023-11-22T05:10:19;4.10;99.90
4828;DHT22;2428;48.732;9.148;2023-11-22T05:12:45;4.10;99.90
4828;DHT22;2428;48.732;9.148;2023-11-22T05:15:11;4.10;99.90
4828;DHT22;2428;48.732;9.148;2023-11-22T05:17:37;4.10;99.90
4828;DHT22;2428;48.732;9.148;2023-11-22T05:20:03;4.10;99.90
4828;DHT22;2428;48.732;9.148;2023-11-22T05:22:30;4.20;99.90
4828;DHT22;2428;48.732;9.148;2023-11-22T05:24:55;4.20;99.90
4828;DHT22;2428;48.732;9.148;2023-11-22T05:27:21;4.20;99.90
4828;DHT22;2428;48.732;9.148;2023-11-22T05:29:47;4.10;99.90
4828;DHT22;2428;48.732;9.148;2023-11-22T05:32:12;4.10;99.90
4828;DHT22;2428;48.732;9.148;2023-11-22T05:34:38;4.10;99.90
4828;DHT22;2428;48.732;9.148;2023-11-22T05:37:05;4.10;99.90
4828;DHT22;2428;48.732;9.148;2023-11-22T05:39:31;4.10;99.90
4828;DHT22;2428;48.732;9.148;2023-11-22T05:41:57;4.10;99.90
4828;DHT22;2428;48.732;9.148;2023-11-22T05:44:22;4.10;99.90
4828;DHT22;2428;48.732;9.148;2023-11-22T05:46:48;4.10;99.90
4828;DHT22;2428;48.732;9.148;2023-11-22T05:49:13;4.10;99.90
4828;DHT22;2428;48.732;9.148;2023-11-22T05:51:39;3.90;99.90
4828;DHT22;2428;48.732;9.148;2023-11-22T05:54:04;3.90;99.90
4828;DHT22;2428;48.732;9.148;2023-11-22T05:56:30;3.90;99.90
4828;DHT22;2428;48.732;9.148;2023-11-22T05:58:57;3.80;99.90
4828;DHT22;2428;48.732;9.148;2023-11-22T06:01:23;3.80;99.90
4828;DHT22;2428;48.732;9.148;2023-11-22T06:03:48;3.80;99.90
4828;DHT22;2428;48.732;9.148;2023-11-22T06:06:14;3.90;99.90
4828;DHT22;2428;48.732;9.148;2023-11-22T06:08:40;3.80;99.90
4828;DHT22;2428;48.732;9.148;2023-11-22T06:11:05;3.80;99.90
4828;DHT22;2428;48.732;9.148;2023-11-22T06:13:32;3.80;99.90
4828;DHT22;2428;48.732;9.148;2023-11-22T06:15:58;3.80;99.90
4828;DHT22;2428;48.732;9.148;2023-11-22T06:18:24;3.70;99.90
4828;DHT22;2428;48.732;9.148;2023-11-22T06:20:55;3.60;99.90
4828;DHT22;2428;48.732;9.148;2023-11-22T06:23:21;3.60;99.90
4828;DHT22;2428;48.732;9.148;2023-11-22T06:25:47;3.60;99.90
4828;DHT22;2428;48.732;9.148;2023-11-22T06:28:12;3.50;99.90
4828;DHT22;2428;48.732;9.148;2023-11-22T06:30:38;3.50;99.90
4828;DHT22;2428;48.732;9.148;2023-11-22T06:33:03;3.50;99.90
4828;DHT22;2428;48.732;9.148;2023-11-22T06:35:29;3.50;99.90
4828;DHT22;2428;48.732;9.148;2023-11-22T06:37:55;3.50;99.90
4828;DHT22;2428;48.732;9.148;2023-11-22T06:40:20;3.60;99.90
4828;DHT22;2428;48.732;9.148;2023-11-22T06:42:46;3.50;99.90
4828;DHT22;2428;48.732;9.148;2023-11-22T06:45:11;3.40;99.90
4828;DHT22;2428;48.732;9.148;2023-11-22T06:47:41;3.40;99.90
4828;DHT22;2428;48.732;9.148;2023-11-22T06:50:07;3.40;99.90
4828;DHT22;2428;48.732;9.148;2023-11-22T06:52:41;3.40;99.90
4828;DHT22;2428;48.732;9.148;2023-11-22T06:55:10;3.40;99.90
4828;DHT22;2428;48.732;9.148;2023-11-22T06:57:36;3.30;99.90
4828;DHT22;2428;48.732;9.148;2023-11-22T07:00:03;3.30;99.90
4828;DHT22;2428;48.732;9.148;2023-11-22T07:02:38;3.30;99.90
4828;DHT22;2428;48.732;9.148;2023-11-22T07:05:05;3.30;99.90
4828;DHT22;2428;48.732;9.148;2023-11-22T07:07:38;3.40;99.90
4828;DHT22;2428;48.732;9.148;2023-11-22T07:10:04;3.50;99.90
4828;DHT22;2428;48.732;9.148;2023-11-22T07:12:31;3.40;99.90
4828;DHT22;2428;48.732;9.148;2023-11-22T07:14:56;3.40;99.90
4828;DHT22;2428;48.732;9.148;2023-11-22T07:17:22;3.40;99.90
4828;DHT22;2428;48.732;9.148;2023-11-22T07:19:48;3.40;99.90
4828;DHT22;2428;48.732;9.148;2023-11-22T07:22:17;3.40;99.90
4828;DHT22;2428;48.732;9.148;2023-11-22T07:24:45;3.30;99.90
4828;DHT22;2428;48.732;9.148;2023-11-22T07:27:12;3.20;99.90
4828;DHT22;2428;48.732;9.148;2023-11-22T07:29:40;3.20;99.90
4828;DHT22;2428;48.732;9.148;2023-11-22T07:32:07;3.30;99.90
4828;DHT22;2428;48.732;9.148;2023-11-22T07:34:34;3.30;99.90
4828;DHT22;2428;48.732;9.148;2023-11-22T07:37:00;3.40;99.90
4828;DHT22;2428;48.732;9.148;2023-11-22T07:39:26;3.40;99.90
4828;DHT22;2428;48.732;9.148;2023-11-22T07:41:56;3.40;99.90
4828;DHT22;2428;48.732;9.148;2023-11-22T07:44:22;3.30;99.90
4828;DHT22;2428;48.732;9.148;2023-11-22T07:46:49;3.40;99.90
4828;DHT22;2428;48.732;9.148;2023-11-22T07:49:15;3.40;99.90
4828;DHT22;2428;48.732;9.148;2023-11-22T07:51:40;3.20;99.90
4828;DHT22;2428;48.732;9.148;2023-11-22T07:54:07;3.10;99.90
4828;DHT22;2428;48.732;9.148;2023-11-22T07:56:34;3.10;99.90
4828;DHT22;2428;48.732;9.148;2023-11-22T07:58:59;3.00;99.90
4828;DHT22;2428;48.732;9.148;2023-11-22T08:01:25;2.90;99.90
4828;DHT22;2428;48.732;9.148;2023-11-22T08:03:53;2.90;99.90
4828;DHT22;2428;48.732;9.148;2023-11-22T08:06:21;3.00;99.90
4828;DHT22;2428;48.732;9.148;2023-11-22T08:08:46;2.90;99.90
4828;DHT22;2428;48.732;9.148;2023-11-22T08:11:12;2.90;99.90
4828;DHT22;2428;48.732;9.148;2023-11-22T08:13:41;2.90;99.90
4828;DHT22;2428;48.732;9.148;2023-11-22T08:16:13;3.00;99.90
4828;DHT22;2428;48.732;9.148;2023-11-22T08:18:40;2.90;99.90
4828;DHT22;2428;48.732;9.148;2023-11-22T08:21:08;2.90;99.90
4828;DHT22;2428;48.732;9.148;2023-11-22T08:23:34;3.00;99.90
4828;DHT22;2428;48.732;9.148;2023-11-22T08:25:59;3.00;99.90
4828;DHT22;2428;48.732;9.148;2023-11-22T08:28:25;2.90;99.90
4828;DHT22;2428;48.732;9.148;2023-11-22T08:30:51;2.80;99.90
4828;DHT22;2428;48.732;9.148;2023-11-22T08:33:17;2.80;99.90
4828;DHT22;2428;48.732;9.148;2023-11-22T08:35:43;2.90;99.90
4828;DHT22;2428;48.732;9.148;2023-11-22T08:38:09;2.90;99.90
4828;DHT22;2428;48.732;9.148;2023-11-22T08:40:35;2.90;99.90
4828;DHT22;2428;48.732;9.148;2023-11-22T08:43:03;2.90;99.90
4828;DHT22;2428;48.732;9.148;2023-11-22T08:45:30;2.90;99.90
4828;DHT22;2428;48.732;9.148;2023-11-22T08:47:57;2.90;99.90
4828;DHT22;2428;48.732;9.148;2023-11-22T08:50:23;2.80;99.90
4828;DHT22;2428;48.732;9.148;2023-11-22T08:52:49;2.90;99.90
4828;DHT22;2428;48.732;9.148;2023-11-22T08:55:18;2.90;99.90
4828;DHT22;2428;48.732;9.148;2023-11-22T08:57:48;3.00;99.90
4828;DHT22;2428;48.732;9.148;2023-11-22T09:00:13;3.00;99.90
4828;DHT22;2428;48.732;9.148;2023-11-22T09:02:40;3.00;99.90
4828;DHT22;2428;48.732;9.148;2023-11-22T09:05:06;3.00;99.90
4828;DHT22;2428;48.732;9.148;2023-11-22T09:07:38;2.90;99.90
4828;DHT22;2428;48.732;9.148;2023-11-22T09:10:04;2.90;99.90
4828;DHT22;2428;48.732;9.148;2023-11-22T09:12:36;2.90;99.90
4828;DHT22;2428;48.732;9.148;2023-11-22T09:15:03;2.90;99.90
4828;DHT22;2428;48.732;9.148;2023-11-22T09:17:30;3.00;99.90
4828;DHT22;2428;48.732;9.148;2023-11-22T09:19:56;3.00;99.90
4828;DHT22;2428;48.732;9.148;2023-11-22T09:22:23;3.00;99.90
4828;DHT22;2428;48.732;9.148;2023-11-22T09:24:51;3.00;99.90
4828;DHT22;2428;48.732;9.148;2023-11-22T09:27:17;3.10;99.90
4828;DHT22;2428;48.732;9.148;2023-11-22T09:29:43;3.10;99.90
4828;DHT22;2428;48.732;9.148;2023-11-22T09:32:10;3.10;99.90
4828;DHT22;2428;48.732;9.148;2023-11-22T09:34:36;3.10;99.90
4828;DHT22;2428;48.732;9.148;2023-11-22T09:37:01;3.10;99.90
4828;DHT22;2428;48.732;9.148;2023-11-22T09:39:27;3.10;99.90
4828;DHT22;2428;48.732;9.148;2023-11-22T09:41:53;3.10;99.90
4828;DHT22;2428;48.732;9.148;2023-11-22T09:44:19;3.10;99.90
4828;DHT22;2428;48.732;9.148;2023-11-22T09:46:48;3.10;99.90
4828;DHT22;2428;48.732;9.148;2023-11-22T09:49:19;3.10;99.90
4828;DHT22;2428;48.732;9.148;2023-11-22T09:51:48;3.10;99.90
4828;DHT22;2428;48.732;9.148;2023-11-22T09:54:18;3.20;99.90
4828;DHT22;2428;48.732;9.148;2023-11-22T09:56:45;3.20;99.90
4828;DHT22;2428;48.732;9.148;2023-11-22T09:59:18;3.20;99.90
4828;DHT22;2428;48.732;9.148;2023-11-22T10:01:48;3.20;99.90
4828;DHT22;2428;48.732;9.148;2023-11-22T10:04:14;3.30;99.90
4828;DHT22;2428;48.732;9.148;2023-11-22T10:06:40;3.30;99.90
4828;DHT22;2428;48.732;9.148;2023-11-22T10:09:11;3.30;99.90
4828;DHT22;2428;48.732;9.148;2023-11-22T10:11:39;3.30;99.90
4828;DHT22;2428;48.732;9.148;2023-11-22T10:14:16;3.40;99.90
4828;DHT22;2428;48.732;9.148;2023-11-22T10:16:58;3.40;99.90
4828;DHT22;2428;48.732;9.148;2023-11-22T10:19:24;3.30;99.90
4828;DHT22;2428;48.732;9.148;2023-11-22T10:22:06;3.20;99.90
4828;DHT22;2428;48.732;9.148;2023-11-22T10:24:32;3.20;99.90
4828;DHT22;2428;48.732;9.148;2023-11-22T10:26:59;3.10;99.90
4828;DHT22;2428;48.732;9.148;2023-11-22T10:29:25;3.10;99.90
4828;DHT22;2428;48.732;9.148;2023-11-22T10:31:51;3.10;99.90
4828;DHT22;2428;48.732;9.148;2023-11-22T10:34:21;3.20;99.90
4828;DHT22;2428;48.732;9.148;2023-11-22T10:36:47;3.20;99.90
4828;DHT22;2428;48.732;9.148;2023-11-22T10:39:13;3.20;99.90
4828;DHT22;2428;48.732;9.148;2023-11-22T10:41:42;3.10;99.90
4828;DHT22;2428;48.732;9.148;2023-11-22T10:44:09;3.10;99.90
4828;DHT22;2428;48.732;9.148;2023-11-22T10:46:35;3.10;99.90
4828;DHT22;2428;48.732;9.148;2023-11-22T10:49:04;3.10;99.90
4828;DHT22;2428;48.732;9.148;2023-11-22T10:51:31;3.20;99.90
4828;DHT22;2428;48.732;9.148;2023-11-22T10:53:58;3.30;99.90
4828;DHT22;2428;48.732;9.148;2023-11-22T10:56:26;3.30;99.90
4828;DHT22;2428;48.732;9.148;2023-11-22T10:58:57;3.40;99.90
4828;DHT22;2428;48.732;9.148;2023-11-22T11:01:26;3.40;99.90
4828;DHT22;2428;48.732;9.148;2023-11-22T11:04:09;3.50;99.90
4828;DHT22;2428;48.732;9.148;2023-11-22T11:06:37;3.50;99.90
4828;DHT22;2428;48.732;9.148;2023-11-22T11:09:04;3.70;99.90
4828;DHT22;2428;48.732;9.148;2023-11-22T11:11:32;3.70;99.90
4828;DHT22;2428;48.732;9.148;2023-11-22T11:13:58;3.60;99.90
4828;DHT22;2428;48.732;9.148;2023-11-22T11:16:25;3.50;99.90
4828;DHT22;2428;48.732;9.148;2023-11-22T11:18:52;3.50;99.90
4828;DHT22;2428;48.732;9.148;2023-11-22T11:21:19;3.50;99.90
4828;DHT22;2428;48.732;9.148;2023-11-22T11:23:44;3.60;99.90
4828;DHT22;2428;48.732;9.148;2023-11-22T11:26:20;3.60;99.90
4828;DHT22;2428;48.732;9.148;2023-11-22T11:28:51;3.60;99.90
4828;DHT22;2428;48.732;9.148;2023-11-22T11:31:20;3.60;99.90
4828;DHT22;2428;48.732;9.148;2023-11-22T11:36:26;3.60;99.90
4828;DHT22;2428;48.732;9.148;2023-11-22T11:38:53;3.50;99.90
4828;DHT22;2428;48.732;9.148;2023-11-22T11:41:27;3.50;99.90
4828;DHT22;2428;48.732;9.148;2023-11-22T11:43:53;3.50;99.90
4828;DHT22;2428;48.732;9.148;2023-11-22T11:46:18;3.60;99.90
4828;DHT22;2428;48.732;9.148;2023-11-22T11:48:45;3.60;99.90
4828;DHT22;2428;48.732;9.148;2023-11-22T11:51:16;3.50;99.90
4828;DHT22;2428;48.732;9.148;2023-11-22T11:53:42;3.50;99.90
4828;DHT22;2428;48.732;9.148;2023-11-22T11:56:09;3.50;99.90
4828;DHT22;2428;48.732;9.148;2023-11-22T11:58:34;3.50;99.90
4828;DHT22;2428;48.732;9.148;2023-11-22T12:01:00;3.50;99.90
4828;DHT22;2428;48.732;9.148;2023-11-22T12:03:26;3.50;99.90
4828;DHT22;2428;48.732;9.148;2023-11-22T12:05:51;3.50;99.90
4828;DHT22;2428;48.732;9.148;2023-11-22T12:08:17;3.40;99.90
4828;DHT22;2428;48.732;9.148;2023-11-22T12:10:44;3.40;99.90
4828;DHT22;2428;48.732;9.148;2023-11-22T12:13:20;3.40;99.90
4828;DHT22;2428;48.732;9.148;2023-11-22T12:15:47;3.40;99.90
4828;DHT22;2428;48.732;9.148;2023-11-22T12:18:13;3.40;99.90
4828;DHT22;2428;48.732;9.148;2023-11-22T12:20:39;3.30;99.90
4828;DHT22;2428;48.732;9.148;2023-11-22T12:23:05;3.30;99.90
4828;DHT22;2428;48.732;9.148;2023-11-22T12:25:32;3.30;99.90
4828;DHT22;2428;48.732;9.148;2023-11-22T12:27:58;3.30;99.90
4828;DHT22;2428;48.732;9.148;2023-11-22T12:30:35;3.20;99.90
4828;DHT22;2428;48.732;9.148;2023-11-22T12:33:05;3.10;99.90
4828;DHT22;2428;48.732;9.148;2023-11-22T12:35:33;3.00;99.90
4828;DHT22;2428;48.732;9.148;2023-11-22T12:38:04;3.10;99.90
4828;DHT22;2428;48.732;9.148;2023-11-22T12:40:31;3.10;99.90
4828;DHT22;2428;48.732;9.148;2023-11-22T12:42:57;3.00;99.90
4828;DHT22;2428;48.732;9.148;2023-11-22T12:45:23;3.00;99.90
4828;DHT22;2428;48.732;9.148;2023-11-22T12:47:51;3.00;99.90
4828;DHT22;2428;48.732;9.148;2023-11-22T12:53:18;2.90;99.90
4828;DHT22;2428;48.732;9.148;2023-11-22T12:55:51;2.90;99.90
4828;DHT22;2428;48.732;9.148;2023-11-22T12:58:18;2.90;99.90
4828;DHT22;2428;48.732;9.148;2023-11-22T13:00:45;2.90;99.90
4828;DHT22;2428;48.732;9.148;2023-11-22T13:03:12;2.90;99.90
4828;DHT22;2428;48.732;9.148;2023-11-22T13:05:39;2.80;99.90
4828;DHT22;2428;48.732;9.148;2023-11-22T13:08:04;2.90;99.90
4828;DHT22;2428;48.732;9.148;2023-11-22T13:10:30;2.80;99.90
4828;DHT22;2428;48.732;9.148;2023-11-22T13:12:57;2.80;99.90
4828;DHT22;2428;48.732;9.148;2023-11-22T13:15:23;2.70;99.90
4828;DHT22;2428;48.732;9.148;2023-11-22T13:17:50;2.70;99.90
4828;DHT22;2428;48.732;9.148;2023-11-22T13:20:26;2.70;99.90
4828;DHT22;2428;48.732;9.148;2023-11-22T13:22:53;2.70;99.90
4828;DHT22;2428;48.732;9.148;2023-11-22T13:25:20;2.80;99.90
4828;DHT22;2428;48.732;9.148;2023-11-22T13:27:47;2.80;99.90
4828;DHT22;2428;48.732;9.148;2023-11-22T13:30:16;2.80;99.90
4828;DHT22;2428;48.732;9.148;2023-11-22T13:32:49;2.80;99.90
4828;DHT22;2428;48.732;9.148;2023-11-22T13:35:15;2.80;99.90
4828;DHT22;2428;48.732;9.148;2023-11-22T13:37:43;2.90;99.90
4828;DHT22;2428;48.732;9.148;2023-11-22T13:40:19;2.90;99.90
4828;DHT22;2428;48.732;9.148;2023-11-22T13:42:51;2.90;99.90
4828;DHT22;2428;48.732;9.148;2023-11-22T13:45:19;2.80;99.90
4828;DHT22;2428;48.732;9.148;2023-11-22T13:47:46;2.80;99.90
4828;DHT22;2428;48.732;9.148;2023-11-22T13:50:16;2.90;99.90
4828;DHT22;2428;48.732;9.148;2023-11-22T13:52:50;2.90;99.90
4828;DHT22;2428;48.732;9.148;2023-11-22T13:55:17;2.90;99.90
4828;DHT22;2428;48.732;9.148;2023-11-22T13:57:51;2.90;99.90
4828;DHT22;2428;48.732;9.148;2023-11-22T14:00:18;3.00;99.90
4828;DHT22;2428;48.732;9.148;2023-11-22T14:02:51;3.00;99.90
4828;DHT22;2428;48.732;9.148;2023-11-22T14:05:18;2.90;99.90
4828;DHT22;2428;48.732;9.148;2023-11-22T14:07:44;2.90;99.90
4828;DHT22;2428;48.732;9.148;2023-11-22T14:10:10;2.90;99.90
4828;DHT22;2428;48.732;9.148;2023-11-22T14:12:36;3.00;99.90
4828;DHT22;2428;48.732;9.148;2023-11-22T14:15:02;3.00;99.90
4828;DHT22;2428;48.732;9.148;2023-11-22T14:17:31;3.00;99.90
4828;DHT22;2428;48.732;9.148;2023-11-22T14:19:57;2.90;99.90
4828;DHT22;2428;48.732;9.148;2023-11-22T14:22:23;2.80;99.90
4828;DHT22;2428;48.732;9.148;2023-11-22T14:24:49;2.80;99.90
4828;DHT22;2428;48.732;9.148;2023-11-22T14:27:16;2.80;99.90
4828;DHT22;2428;48.732;9.148;2023-11-22T14:29:43;2.80;99.90
4828;DHT22;2428;48.732;9.148;2023-11-22T14:32:10;2.80;99.90
4828;DHT22;2428;48.732;9.148;2023-11-22T14:34:36;2.80;99.90
4828;DHT22;2428;48.732;9.148;2023-11-22T14:37:04;2.80;99.90
4828;DHT22;2428;48.732;9.148;2023-11-22T14:39:29;2.80;99.90
4828;DHT22;2428;48.732;9.148;2023-11-22T14:41:55;2.90;99.90
4828;DHT22;2428;48.732;9.148;2023-11-22T14:44:21;3.00;99.90
4828;DHT22;2428;48.732;9.148;2023-11-22T14:46:46;2.90;99.90
4828;DHT22;2428;48.732;9.148;2023-11-22T14:49:13;3.00;99.90
4828;DHT22;2428;48.732;9.148;2023-11-22T14:51:40;3.00;99.90
4828;DHT22;2428;48.732;9.148;2023-11-22T14:54:05;3.00;99.90
4828;DHT22;2428;48.732;9.148;2023-11-22T14:56:32;2.90;99.90
4828;DHT22;2428;48.732;9.148;2023-11-22T14:58:57;2.90;99.90
4828;DHT22;2428;48.732;9.148;2023-11-22T15:01:25;2.90;99.90
4828;DHT22;2428;48.732;9.148;2023-11-22T15:03:51;2.90;99.90
4828;DHT22;2428;48.732;9.148;2023-11-22T15:06:19;2.90;99.90
4828;DHT22;2428;48.732;9.148;2023-11-22T15:08:45;2.80;99.90
4828;DHT22;2428;48.732;9.148;2023-11-22T15:11:11;2.80;99.90
4828;DHT22;2428;48.732;9.148;2023-11-22T15:13:37;2.90;99.90
4828;DHT22;2428;48.732;9.148;2023-11-22T15:16:03;2.90;99.90
4828;DHT22;2428;48.732;9.148;2023-11-22T15:18:28;2.90;99.90
4828;DHT22;2428;48.732;9.148;2023-11-22T15:20:56;3.00;99.90
4828;DHT22;2428;48.732;9.148;2023-11-22T15:23:21;3.00;99.90
4828;DHT22;2428;48.732;9.148;2023-11-22T15:25:47;3.00;99.90
4828;DHT22;2428;48.732;9.148;2023-11-22T15:28:13;2.90;99.90
4828;DHT22;2428;48.732;9.148;2023-11-22T15:30:47;2.90;99.90
4828;DHT22;2428;48.732;9.148;2023-11-22T15:33:17;2.80;99.90
4828;DHT22;2428;48.732;9.148;2023-11-22T15:35:43;2.90;99.90
4828;DHT22;2428;48.732;9.148;2023-11-22T15:38:09;3.00;99.90
4828;DHT22;2428;48.732;9.148;2023-11-22T15:40:34;2.90;99.90
4828;DHT22;2428;48.732;9.148;2023-11-22T15:43:00;2.90;99.90
4828;DHT22;2428;48.732;9.148;2023-11-22T15:45:26;3.00;99.90
4828;DHT22;2428;48.732;9.148;2023-11-22T15:47:51;3.00;99.90
4828;DHT22;2428;48.732;9.148;2023-11-22T15:50:17;3.00;99.90
4828;DHT22;2428;48.732;9.148;2023-11-22T15:52:43;3.00;99.90
4828;DHT22;2428;48.732;9.148;2023-11-22T15:55:09;3.00;99.90
4828;DHT22;2428;48.732;9.148;2023-11-22T15:57:35;2.90;99.90
4828;DHT22;2428;48.732;9.148;2023-11-22T16:00:01;2.90;99.90
4828;DHT22;2428;48.732;9.148;2023-11-22T16:02:32;2.90;99.90
4828;DHT22;2428;48.732;9.148;2023-11-22T16:04:58;2.90;99.90
4828;DHT22;2428;48.732;9.148;2023-11-22T16:07:23;2.90;99.90
4828;DHT22;2428;48.732;9.148;2023-11-22T16:09:50;2.80;99.90
4828;DHT22;2428;48.732;9.148;2023-11-22T16:12:16;2.80;99.90
4828;DHT22;2428;48.732;9.148;2023-11-22T16:14:46;2.90;99.90
4828;DHT22;2428;48.732;9.148;2023-11-22T16:17:11;2.90;99.90
4828;DHT22;2428;48.732;9.148;2023-11-22T16:19:37;3.00;99.90